createdAt,value
2022-10-12T00:01:55.968Z,73.50
2022-10-12T00:04:30.410Z,68.00
2022-10-12T00:07:05.165Z,70.80
2022-10-12T00:09:37.807Z,70.30
2022-10-12T00:12:10.508Z,71.60
2022-10-12T00:14:43.603Z,72.90
2022-10-12T00:17:16.218Z,85.30
2022-10-12T00:19:51.256Z,90.40
2022-10-12T00:22:23.217Z,80.80
2022-10-12T00:25:01.332Z,81.60
2022-10-12T00:27:35.120Z,84.80
2022-10-12T00:30:10.592Z,89.70
2022-10-12T00:32:42.547Z,85.80
2022-10-12T00:35:15.815Z,83.40
2022-10-12T00:37:50.395Z,79.60
2022-10-12T00:40:22.730Z,83.30
2022-10-12T00:42:55.433Z,83.80
2022-10-12T00:45:29.579Z,86.50
2022-10-12T00:48:03.227Z,84.30
2022-10-12T00:50:36.718Z,85.70
2022-10-12T00:53:13.135Z,92.80
2022-10-12T00:55:49.167Z,87.00
2022-10-12T00:58:21.394Z,82.30
2022-10-12T01:00:53.759Z,71.80
2022-10-12T01:03:28.147Z,72.60
2022-10-12T01:06:01.170Z,74.70
2022-10-12T01:08:34.557Z,84.40
2022-10-12T01:11:07.699Z,83.30
2022-10-12T01:13:39.802Z,87.10
2022-10-12T01:16:17.985Z,88.00
2022-10-12T01:18:54.690Z,86.10
2022-10-12T01:21:27.048Z,81.70
2022-10-12T01:24:31.909Z,82.40
2022-10-12T01:27:36.467Z,95.00
2022-10-12T01:30:14.263Z,91.20
2022-10-12T01:33:09.755Z,83.10
2022-10-12T01:35:47.574Z,78.10
2022-10-12T01:38:29.002Z,85.90
2022-10-12T01:41:04.386Z,82.20
2022-10-12T01:43:41.138Z,75.30
2022-10-12T01:46:53.428Z,72.90
2022-10-12T01:49:29.045Z,71.30
2022-10-12T01:52:18.012Z,75.20
2022-10-12T01:55:00.136Z,77.00
2022-10-12T01:57:37.289Z,71.40
2022-10-12T02:00:13.679Z,76.50
2022-10-12T02:02:52.058Z,84.30
2022-10-12T02:05:31.749Z,89.00
2022-10-12T02:08:07.155Z,86.00
2022-10-12T02:10:45.903Z,74.90
2022-10-12T02:13:19.961Z,68.20
2022-10-12T02:15:52.786Z,70.20
2022-10-12T02:18:28.801Z,69.30
2022-10-12T02:21:02.707Z,76.10
2022-10-12T02:23:37.731Z,85.70
2022-10-12T02:26:13.389Z,83.10
2022-10-12T02:28:47.042Z,80.40
2022-10-12T02:31:27.233Z,86.90
2022-10-12T02:34:05.006Z,80.00
2022-10-12T02:36:43.821Z,82.60
2022-10-12T02:39:21.207Z,82.30
2022-10-12T02:41:56.518Z,78.00
2022-10-12T02:44:32.308Z,77.30
2022-10-12T02:47:06.950Z,71.60
2022-10-12T02:49:39.507Z,70.00
2022-10-12T02:52:12.652Z,68.80
2022-10-12T02:54:48.225Z,67.30
2022-10-12T02:57:21.312Z,71.00
2022-10-12T02:59:57.295Z,66.60
2022-10-12T03:02:30.516Z,67.00
2022-10-12T03:05:04.389Z,65.80
2022-10-12T03:07:39.974Z,65.70
2022-10-12T03:10:16.214Z,65.60
2022-10-12T03:12:50.375Z,67.70
2022-10-12T03:15:25.285Z,67.40
2022-10-12T03:17:57.757Z,64.30
2022-10-12T03:20:31.398Z,64.00
2022-10-12T03:23:07.424Z,62.50
2022-10-12T03:25:41.332Z,65.90
2022-10-12T03:28:13.590Z,61.60
2022-10-12T03:30:47.865Z,65.20
2022-10-12T03:33:21.383Z,61.10
2022-10-12T03:35:54.551Z,55.70
2022-10-12T03:38:27.463Z,56.30
2022-10-12T03:41:05.697Z,59.10
2022-10-12T03:43:40.747Z,58.80
2022-10-12T03:46:14.132Z,57.20
2022-10-12T03:48:48.230Z,56.70
2022-10-12T03:51:23.106Z,55.40
2022-10-12T03:53:55.712Z,54.80
2022-10-12T03:56:28.023Z,55.70
2022-10-12T03:59:00.884Z,54.20
2022-10-12T04:01:35.772Z,55.20
2022-10-12T04:04:09.147Z,55.20
2022-10-12T04:06:44.971Z,56.00
2022-10-12T04:09:19.630Z,58.70
2022-10-12T04:11:55.167Z,57.60
2022-10-12T04:14:27.306Z,58.10
2022-10-12T04:17:03.471Z,59.00
2022-10-12T04:19:37.376Z,64.40
2022-10-12T04:22:12.512Z,69.70
2022-10-12T04:24:44.305Z,74.00
2022-10-12T04:27:16.135Z,84.40
2022-10-12T04:29:49.877Z,78.20
2022-10-12T04:32:23.233Z,76.00
2022-10-12T04:35:01.856Z,76.10
2022-10-12T04:37:34.457Z,73.50
2022-10-12T04:40:07.939Z,72.20
2022-10-12T04:42:43.646Z,70.60
2022-10-12T04:45:16.668Z,67.70
2022-10-12T04:47:51.228Z,67.10
2022-10-12T04:50:27.499Z,72.30
2022-10-12T04:53:02.032Z,76.40
2022-10-12T04:55:34.767Z,82.50
2022-10-12T04:58:06.689Z,85.70
2022-10-12T05:00:39.404Z,95.60
2022-10-12T05:03:13.285Z,98.00
2022-10-12T05:05:47.489Z,104.50
2022-10-12T05:08:21.874Z,95.20
2022-10-12T05:10:56.431Z,94.50
2022-10-12T05:13:29.050Z,91.20
2022-10-12T05:16:02.340Z,87.10
2022-10-12T05:18:34.605Z,90.00
2022-10-12T05:21:08.972Z,83.90
2022-10-12T05:23:40.998Z,94.60
2022-10-12T05:26:16.058Z,88.00
2022-10-12T05:28:48.499Z,88.90
2022-10-12T05:31:24.517Z,82.90
2022-10-12T05:33:57.799Z,79.40
2022-10-12T05:36:30.338Z,80.50
2022-10-12T05:39:03.653Z,77.20
2022-10-12T05:41:37.841Z,78.40
2022-10-12T05:44:11.961Z,77.80
2022-10-12T05:46:46.625Z,75.60
2022-10-12T05:49:19.353Z,73.40
2022-10-12T05:51:54.522Z,68.10
2022-10-12T05:54:28.371Z,67.20
2022-10-12T05:57:00.750Z,64.00
2022-10-12T05:59:33.446Z,65.00
2022-10-12T06:02:07.376Z,62.70
2022-10-12T06:04:40.888Z,61.20
2022-10-12T06:07:13.442Z,60.10
2022-10-12T06:09:48.511Z,57.70
2022-10-12T06:12:20.811Z,58.50
2022-10-12T06:14:54.323Z,58.10
2022-10-12T06:17:29.193Z,61.40
2022-10-12T06:20:04.233Z,59.70
2022-10-12T06:22:37.730Z,57.90
2022-10-12T06:25:11.255Z,56.50
2022-10-12T06:27:44.084Z,55.90
2022-10-12T06:30:16.278Z,55.90
2022-10-12T06:32:51.565Z,56.50
2022-10-12T06:35:23.785Z,53.40
2022-10-12T06:37:56.603Z,52.60
2022-10-12T06:40:32.242Z,52.80
2022-10-12T06:43:05.036Z,52.70
2022-10-12T06:45:39.776Z,54.70
2022-10-12T06:48:18.586Z,58.80
2022-10-12T06:50:54.589Z,57.30
2022-10-12T06:53:31.374Z,54.90
2022-10-12T06:56:04.193Z,57.30
2022-10-12T06:58:38.388Z,52.30
2022-10-12T07:01:12.434Z,49.30
2022-10-12T07:03:44.380Z,50.10
2022-10-12T07:06:16.833Z,48.80
2022-10-12T07:08:49.179Z,48.50
2022-10-12T07:11:21.168Z,47.60
2022-10-12T07:13:54.162Z,49.30
2022-10-12T07:16:28.725Z,44.50
2022-10-12T07:19:01.815Z,44.90
2022-10-12T07:21:34.989Z,44.90
2022-10-12T07:24:09.627Z,46.00
2022-10-12T07:26:43.714Z,48.10
2022-10-12T07:29:20.010Z,46.70
2022-10-12T07:31:53.190Z,43.60
2022-10-12T07:34:31.050Z,43.60
2022-10-12T07:37:03.699Z,43.90
2022-10-12T07:39:37.054Z,42.70
2022-10-12T07:42:16.855Z,43.70
2022-10-12T07:44:54.180Z,43.80
2022-10-12T07:47:54.088Z,44.90
2022-10-12T07:50:31.067Z,45.80
2022-10-12T07:53:07.459Z,45.00
2022-10-12T07:55:45.379Z,46.20
2022-10-12T07:58:19.878Z,46.10
2022-10-12T08:00:53.738Z,45.70
2022-10-12T08:03:27.897Z,43.40
2022-10-12T08:06:04.212Z,41.00
2022-10-12T08:08:40.024Z,39.10
2022-10-12T08:11:41.993Z,39.20
2022-10-12T08:14:21.687Z,40.90
2022-10-12T08:16:59.051Z,39.20
2022-10-12T08:19:40.506Z,39.70
2022-10-12T08:22:18.738Z,39.70
2022-10-12T08:24:57.012Z,39.90
2022-10-12T08:27:34.382Z,39.10
2022-10-12T08:30:13.743Z,38.60
2022-10-12T08:32:46.792Z,36.40
2022-10-12T08:35:22.501Z,35.60
2022-10-12T08:37:56.035Z,34.10
2022-10-12T08:40:35.645Z,32.80
2022-10-12T08:43:20.599Z,28.40
2022-10-12T08:45:59.061Z,22.50
2022-10-12T08:49:03.810Z,20.40
2022-10-12T08:51:49.113Z,19.20
2022-10-12T08:54:32.952Z,16.60
2022-10-12T08:57:15.495Z,16.50
2022-10-12T08:59:52.967Z,13.00
2022-10-12T09:02:46.407Z,12.20
2022-10-12T09:05:49.703Z,12.40
2022-10-12T09:08:38.858Z,9.70
2022-10-12T09:11:32.568Z,8.70
2022-10-12T09:14:32.977Z,8.20
2022-10-12T09:24:26.293Z,6.50
2022-10-12T09:27:30.681Z,6.00
2022-10-12T09:30:09.402Z,6.20
2022-10-12T09:33:09.623Z,6.10
2022-10-12T09:35:52.127Z,6.80
2022-10-12T09:42:15.438Z,6.10
2022-10-12T09:44:55.413Z,7.20
2022-10-12T09:50:46.837Z,5.40
2022-10-12T09:53:35.318Z,5.60
2022-10-12T09:56:38.062Z,4.80
2022-10-12T10:02:58.125Z,3.90
2022-10-12T10:05:35.113Z,3.70
2022-10-12T10:14:48.984Z,3.80
2022-10-12T10:17:57.747Z,4.20
2022-10-12T10:21:00.088Z,5.10
2022-10-12T10:24:03.938Z,5.30
2022-10-12T10:27:24.086Z,6.00
2022-10-12T10:30:29.613Z,4.70
2022-10-12T10:33:28.219Z,4.50
2022-10-12T10:36:46.981Z,4.90
2022-10-12T10:39:29.934Z,5.30
2022-10-12T10:42:21.228Z,5.10
2022-10-12T10:45:03.158Z,4.90
2022-10-12T10:47:51.506Z,6.10
2022-10-12T10:50:37.591Z,6.00
2022-10-12T10:53:19.438Z,4.60
2022-10-12T10:56:00.206Z,4.90
2022-10-12T10:58:40.067Z,4.40
2022-10-12T11:01:45.738Z,4.70
2022-10-12T11:04:48.570Z,5.60
2022-10-12T11:07:32.720Z,6.10
2022-10-12T11:10:24.798Z,5.10
2022-10-12T11:13:06.540Z,6.00
2022-10-12T11:19:00.837Z,4.40
2022-10-12T11:21:51.936Z,4.00
2022-10-12T11:24:33.004Z,5.40
2022-10-12T11:27:18.802Z,4.80
2022-10-12T11:30:09.448Z,4.30
2022-10-12T11:32:48.151Z,3.80
2022-10-12T11:35:31.103Z,3.70
2022-10-12T11:38:06.574Z,3.60
2022-10-12T11:43:45.043Z,3.90
2022-10-12T11:46:29.945Z,4.10
2022-10-12T11:49:32.776Z,4.40
2022-10-12T11:52:12.514Z,3.70
2022-10-12T11:54:56.458Z,4.00
2022-10-12T11:57:53.451Z,4.60
2022-10-12T12:00:59.006Z,4.00
2022-10-12T12:03:41.346Z,4.60
2022-10-12T12:10:53.724Z,3.90
2022-10-12T12:13:56.997Z,5.60
2022-10-12T12:16:50.274Z,4.30
2022-10-12T12:20:16.318Z,3.70
2022-10-12T12:22:58.917Z,3.80
2022-10-12T12:26:04.435Z,5.20
2022-10-12T12:29:05.350Z,7.30
2022-10-12T12:31:44.347Z,4.10
2022-10-12T12:34:19.354Z,4.40
2022-10-12T12:51:45.197Z,3.80
2022-10-12T12:54:33.897Z,4.40
2022-10-12T13:01:00.821Z,6.30
2022-10-12T13:08:22.049Z,3.50
2022-10-12T13:15:24.039Z,3.60
2022-10-12T13:18:45.785Z,4.20
2022-10-12T13:21:26.484Z,10.00
2022-10-12T13:24:18.482Z,5.10
2022-10-12T13:27:41.378Z,3.80
2022-10-12T13:30:28.838Z,4.30
2022-10-12T13:33:17.586Z,4.40
2022-10-12T13:36:05.783Z,5.40
2022-10-12T13:39:49.861Z,4.10
2022-10-12T13:42:30.018Z,3.00
2022-10-12T13:51:38.057Z,3.10
2022-10-12T13:54:40.110Z,3.20
2022-10-12T13:57:24.060Z,3.30
2022-10-12T14:00:29.210Z,3.40
2022-10-12T14:06:42.887Z,3.80
2022-10-12T14:09:23.103Z,3.50
2022-10-12T14:12:04.189Z,3.10
2022-10-12T14:14:47.120Z,5.00
2022-10-12T14:17:29.235Z,12.90
2022-10-12T14:20:24.004Z,6.40
2022-10-12T14:23:02.352Z,5.10
2022-10-12T14:26:01.155Z,4.30
2022-10-12T14:28:38.551Z,3.70
2022-10-12T14:31:12.019Z,3.30
2022-10-12T14:33:50.199Z,4.90
2022-10-12T14:36:30.781Z,3.60
2022-10-12T14:39:30.961Z,3.40
2022-10-12T14:45:29.670Z,3.30
2022-10-12T14:48:14.363Z,3.30
2022-10-12T14:50:52.813Z,3.60
2022-10-12T14:57:33.319Z,3.20
2022-10-12T15:00:38.333Z,4.10
2022-10-12T15:03:20.212Z,4.40
2022-10-12T15:05:56.985Z,3.70
2022-10-12T15:08:32.856Z,3.70
2022-10-12T15:11:42.706Z,3.80
2022-10-12T15:14:51.903Z,4.00
2022-10-12T15:17:25.665Z,4.70
2022-10-12T15:20:08.614Z,4.30
2022-10-12T15:23:08.111Z,4.40
2022-10-12T15:26:19.610Z,4.60
2022-10-12T15:33:31.567Z,4.60
2022-10-12T15:40:00.502Z,4.40
2022-10-12T15:42:40.054Z,4.70
2022-10-12T15:46:02.936Z,4.70
2022-10-12T15:49:01.382Z,5.60
2022-10-12T15:54:48.948Z,5.30
2022-10-12T15:57:24.845Z,5.80
2022-10-12T16:00:24.127Z,5.70
2022-10-12T16:03:26.415Z,5.80
2022-10-12T16:10:20.318Z,6.70
2022-10-12T16:12:58.082Z,7.00
2022-10-12T16:16:00.695Z,7.80
2022-10-12T16:18:47.891Z,7.50
2022-10-12T16:21:53.745Z,7.30
2022-10-12T16:24:30.337Z,7.70
2022-10-12T16:27:57.867Z,7.80
2022-10-12T16:30:30.954Z,9.40
2022-10-12T16:33:29.323Z,8.90
2022-10-12T16:43:17.134Z,9.20
2022-10-12T16:46:02.945Z,9.70
2022-10-12T16:48:40.990Z,9.50
2022-10-12T16:51:19.759Z,10.80
2022-10-12T16:57:40.369Z,11.40
2022-10-12T17:00:22.597Z,12.30
2022-10-12T17:03:42.268Z,12.10
2022-10-12T17:06:21.360Z,12.80
2022-10-12T17:08:58.991Z,13.90
2022-10-12T17:12:00.757Z,13.80
2022-10-12T17:14:41.397Z,14.10
2022-10-12T17:18:02.010Z,14.80
2022-10-12T17:20:37.167Z,17.60
2022-10-12T17:23:41.807Z,21.70
2022-10-12T17:27:08.917Z,22.70
2022-10-12T17:30:15.021Z,20.10
2022-10-12T17:32:54.160Z,19.90
2022-10-12T17:35:28.604Z,19.10
2022-10-12T17:38:30.028Z,19.20
2022-10-12T17:44:56.974Z,19.70
2022-10-12T17:47:31.161Z,20.30
2022-10-12T17:50:04.328Z,21.90
2022-10-12T17:52:42.359Z,23.10
2022-10-12T17:55:43.371Z,22.80
2022-10-12T18:05:05.110Z,22.30
2022-10-12T18:07:42.120Z,22.10
2022-10-12T18:11:31.318Z,23.10
2022-10-12T18:14:58.960Z,24.00
2022-10-12T18:17:34.596Z,23.90
2022-10-12T18:20:14.011Z,24.60
2022-10-12T18:27:23.392Z,25.10
2022-10-12T18:30:25.593Z,25.60
2022-10-12T18:33:04.052Z,26.50
2022-10-12T18:35:43.489Z,25.90
2022-10-12T18:42:03.767Z,28.10
2022-10-12T18:45:29.561Z,34.50
2022-10-12T18:48:08.401Z,41.10
2022-10-12T18:51:11.795Z,62.70
2022-10-12T18:53:54.438Z,60.40
2022-10-12T18:56:37.573Z,56.30
2022-10-12T18:59:13.203Z,58.80
2022-10-12T19:01:50.694Z,57.20
2022-10-12T19:04:26.869Z,55.10
2022-10-12T19:07:28.173Z,58.30
2022-10-12T19:11:15.085Z,49.10
2022-10-12T19:14:40.532Z,53.90
2022-10-12T19:17:38.495Z,52.70
2022-10-12T19:20:40.047Z,55.30
2022-10-12T19:23:21.402Z,51.90
2022-10-12T19:33:28.490Z,64.30
2022-10-12T19:36:40.816Z,59.10
2022-10-12T19:40:07.649Z,66.50
2022-10-12T19:42:43.402Z,60.60
2022-10-12T19:45:25.079Z,60.80
2022-10-12T19:51:26.214Z,89.60
2022-10-12T19:57:38.802Z,52.70
2022-10-12T20:00:27.028Z,49.90
2022-10-12T20:03:02.445Z,52.30
2022-10-12T20:05:39.952Z,52.50
2022-10-12T20:09:09.188Z,53.60
2022-10-12T20:11:50.619Z,59.30
2022-10-12T20:14:53.539Z,58.60
2022-10-12T20:17:50.467Z,57.50
2022-10-12T20:20:27.231Z,57.90
2022-10-12T20:23:02.319Z,61.80
2022-10-12T20:26:01.598Z,60.50
2022-10-12T20:32:45.233Z,69.60
2022-10-12T20:35:19.812Z,64.00
2022-10-12T20:38:18.095Z,68.30
2022-10-12T20:45:17.101Z,130.20
2022-10-12T20:47:52.954Z,159.60
2022-10-12T20:54:07.333Z,115.30
2022-10-12T21:09:19.895Z,107.40
2022-10-12T21:11:56.291Z,123.30
2022-10-12T21:14:58.792Z,116.60
2022-10-12T21:17:57.837Z,159.10
2022-10-12T21:20:38.714Z,154.30
2022-10-12T21:24:25.253Z,162.70
2022-10-12T21:27:51.065Z,153.80
2022-10-12T21:30:24.410Z,143.60
2022-10-12T21:32:59.925Z,143.50
2022-10-12T21:35:34.654Z,140.10
2022-10-12T21:38:35.591Z,132.10
2022-10-12T21:41:59.288Z,126.60
2022-10-12T21:45:07.146Z,122.70
2022-10-12T21:47:43.130Z,134.10
2022-10-12T21:51:29.228Z,130.30
2022-10-12T21:54:29.425Z,153.90
2022-10-12T21:57:04.951Z,151.90
2022-10-12T22:00:09.124Z,149.50
2022-10-12T22:02:47.406Z,168.80
2022-10-12T22:05:25.493Z,177.50
2022-10-12T22:11:50.025Z,147.80
2022-10-12T22:14:24.987Z,127.40
2022-10-12T22:17:47.031Z,131.00
2022-10-12T22:21:07.805Z,115.80
2022-10-12T22:23:42.410Z,93.90
2022-10-12T22:26:23.388Z,92.80
2022-10-12T22:29:07.065Z,98.50
2022-10-12T22:31:47.955Z,91.50
2022-10-12T22:34:26.765Z,102.60
2022-10-12T22:44:03.420Z,91.50
2022-10-12T22:46:40.372Z,89.40
2022-10-12T22:50:03.461Z,89.90
2022-10-12T22:53:04.789Z,92.60
2022-10-12T22:56:05.621Z,83.80
2022-10-12T22:58:49.073Z,87.20
2022-10-12T23:01:27.110Z,86.00
2022-10-12T23:03:59.984Z,91.30
2022-10-12T23:10:44.936Z,101.50
2022-10-12T23:13:44.422Z,98.20
2022-10-12T23:16:25.239Z,110.00
2022-10-12T23:19:04.998Z,107.50
2022-10-12T23:21:39.334Z,101.40
2022-10-12T23:24:13.094Z,92.00
2022-10-12T23:26:51.917Z,94.40
2022-10-12T23:29:29.706Z,93.30
2022-10-12T23:32:11.220Z,91.80
2022-10-12T23:34:48.174Z,86.00
2022-10-12T23:38:16.695Z,94.90
2022-10-12T23:40:51.000Z,107.10
2022-10-12T23:43:54.619Z,93.70
2022-10-12T23:50:48.925Z,86.90
2022-10-12T23:53:23.733Z,83.30
2022-10-12T23:56:22.004Z,79.10
